createdAt,value
2018-05-09T00:00:48.728Z,101001.59
2018-05-09T00:03:16.135Z,100996.73
2018-05-09T00:05:43.560Z,101005.89
2018-05-09T00:08:10.972Z,101004.69
2018-05-09T00:10:38.385Z,100993.41
2018-05-09T00:13:05.788Z,101002.39
2018-05-09T00:15:33.207Z,100996.77
2018-05-09T00:18:00.604Z,100997.92
2018-05-09T00:20:28.035Z,100995.32
2018-05-09T00:22:55.432Z,100995.67
2018-05-09T00:25:22.852Z,100993.06
2018-05-09T00:27:50.273Z,100989.42
2018-05-09T00:30:17.684Z,100986.94
2018-05-09T00:32:45.089Z,100988.89
2018-05-09T00:35:12.506Z,100984.45
2018-05-09T00:37:39.910Z,100992.08
2018-05-09T00:40:07.325Z,100989.85
2018-05-09T00:42:34.742Z,100987.45
2018-05-09T00:45:02.164Z,100988.78
2018-05-09T00:47:29.576Z,100985.55
2018-05-09T00:49:56.992Z,100985.70
2018-05-09T00:52:24.393Z,100984.85
2018-05-09T00:54:51.809Z,100983.03
2018-05-09T00:57:19.222Z,100983.42
2018-05-09T00:59:46.679Z,100985.00
2018-05-09T01:02:14.087Z,100992.62
2018-05-09T01:04:41.492Z,100983.59
2018-05-09T01:07:08.908Z,100985.78
2018-05-09T01:09:36.321Z,100980.19
2018-05-09T01:12:03.736Z,100980.98
2018-05-09T01:14:31.144Z,100983.36
2018-05-09T01:16:58.565Z,100984.94
2018-05-09T01:19:25.969Z,100981.53
2018-05-09T01:21:53.388Z,100971.33
2018-05-09T01:24:20.796Z,100974.90
2018-05-09T01:26:48.215Z,100973.85
2018-05-09T01:29:15.625Z,100972.03
2018-05-09T01:31:43.039Z,100969.20
2018-05-09T01:34:10.445Z,100968.37
2018-05-09T01:36:37.860Z,100971.91
2018-05-09T01:39:06.165Z,100968.30
2018-05-09T01:41:33.576Z,100966.30
2018-05-09T01:44:00.983Z,100960.10
2018-05-09T01:46:28.400Z,100960.03
2018-05-09T01:48:55.802Z,100958.83
2018-05-09T01:51:23.212Z,100961.56
2018-05-09T01:53:50.622Z,100962.11
2018-05-09T01:56:18.032Z,100959.86
2018-05-09T01:58:45.439Z,100954.64
2018-05-09T02:01:12.860Z,100956.83
2018-05-09T02:03:40.264Z,100947.78
2018-05-09T02:06:07.739Z,100943.92
2018-05-09T02:08:35.082Z,100947.29
2018-05-09T02:11:02.505Z,100953.62
2018-05-09T02:13:29.908Z,100953.77
2018-05-09T02:15:57.384Z,100948.13
2018-05-09T02:18:24.788Z,100949.88
2018-05-09T02:20:52.203Z,100951.00
2018-05-09T02:23:19.604Z,100953.94
2018-05-09T02:25:47.020Z,100950.46
2018-05-09T02:28:14.421Z,100951.81
2018-05-09T02:30:41.842Z,100949.72
2018-05-09T02:33:09.256Z,100951.20
2018-05-09T02:35:36.656Z,100950.88
2018-05-09T02:38:04.065Z,100947.38
2018-05-09T02:40:31.472Z,100955.64
2018-05-09T02:42:58.891Z,100949.14
2018-05-09T02:45:26.296Z,100950.58
2018-05-09T02:47:53.712Z,100950.64
2018-05-09T02:50:21.113Z,100950.39
2018-05-09T02:52:48.529Z,100948.13
2018-05-09T02:55:15.936Z,100953.40
2018-05-09T02:57:43.348Z,100955.30
2018-05-09T03:00:10.761Z,100948.78
2018-05-09T03:02:38.173Z,100951.90
2018-05-09T03:05:05.585Z,100952.42
2018-05-09T03:07:32.997Z,100953.09
2018-05-09T03:10:00.409Z,100953.76
2018-05-09T03:12:27.811Z,100952.07
2018-05-09T03:14:55.214Z,100957.91
2018-05-09T03:17:22.628Z,100957.41
2018-05-09T03:19:50.041Z,100962.11
2018-05-09T03:22:17.453Z,100965.76
2018-05-09T03:24:44.861Z,100962.87
2018-05-09T03:27:12.275Z,100961.59
2018-05-09T03:29:39.770Z,100969.04
2018-05-09T03:32:07.093Z,100968.53
2018-05-09T03:34:34.504Z,100972.14
2018-05-09T03:37:01.905Z,100977.45
2018-05-09T03:39:29.312Z,100975.91
2018-05-09T03:41:56.715Z,100971.63
2018-05-09T03:44:24.136Z,100969.08
2018-05-09T03:46:51.540Z,100955.85
2018-05-09T03:49:18.952Z,100956.13
2018-05-09T03:51:46.369Z,100965.16
2018-05-09T03:54:13.788Z,100956.56
2018-05-09T03:56:41.187Z,100962.67
2018-05-09T03:59:08.632Z,100959.48
2018-05-09T04:04:47.468Z,100969.08
2018-05-09T04:07:26.682Z,100972.00
2018-05-09T04:09:54.815Z,100963.77
2018-05-09T04:12:22.226Z,100961.94
2018-05-09T04:14:49.711Z,100973.25
2018-05-09T04:17:17.086Z,100972.46
2018-05-09T04:19:44.508Z,100969.84
2018-05-09T04:22:11.919Z,100972.05
2018-05-09T04:24:39.325Z,100968.09
2018-05-09T04:27:06.747Z,100966.15
2018-05-09T04:29:34.214Z,100970.61
2018-05-09T04:32:01.569Z,100974.15
2018-05-09T04:34:28.973Z,100977.45
2018-05-09T04:36:56.384Z,100969.41
2018-05-09T04:39:23.797Z,100966.32
2018-05-09T04:41:51.246Z,100971.63
2018-05-09T04:44:18.625Z,100968.33
2018-05-09T04:46:46.045Z,100972.20
2018-05-09T04:49:13.544Z,100964.97
2018-05-09T04:51:40.867Z,100964.66
2018-05-09T04:54:08.269Z,100965.95
2018-05-09T04:56:35.683Z,100963.73
2018-05-09T04:59:03.089Z,100957.55
2018-05-09T05:01:30.505Z,100957.56
2018-05-09T05:03:57.916Z,100951.56
2018-05-09T05:06:25.325Z,100963.75
2018-05-09T05:08:52.728Z,100967.94
2018-05-09T05:11:20.149Z,100969.31
2018-05-09T05:13:47.556Z,100967.95
2018-05-09T05:16:14.961Z,100972.30
2018-05-09T05:18:42.381Z,100966.91
2018-05-09T05:21:09.789Z,100964.11
2018-05-09T05:23:37.205Z,100967.34
2018-05-09T05:26:04.611Z,100973.55
2018-05-09T05:28:32.029Z,100972.72
2018-05-09T05:30:59.440Z,100975.73
2018-05-09T05:33:26.857Z,100975.48
2018-05-09T05:35:54.269Z,100974.81
2018-05-09T05:38:21.672Z,100970.36
2018-05-09T05:40:49.084Z,100978.27
2018-05-09T05:43:16.497Z,100973.63
2018-05-09T05:45:43.900Z,100970.36
2018-05-09T05:48:11.321Z,100969.69
2018-05-09T05:50:38.728Z,100971.82
2018-05-09T05:53:06.144Z,100983.98
2018-05-09T05:55:33.549Z,100985.69
2018-05-09T05:58:00.964Z,100989.77
2018-05-09T06:00:28.377Z,100985.27
2018-05-09T06:02:55.793Z,100987.63
2018-05-09T06:05:23.199Z,100983.73
2018-05-09T06:07:50.637Z,100984.03
2018-05-09T06:10:18.069Z,100985.10
2018-05-09T06:12:45.501Z,100989.41
2018-05-09T06:15:12.904Z,100993.06
2018-05-09T06:17:40.316Z,100980.55
2018-05-09T06:20:07.732Z,100987.02
2018-05-09T06:22:35.150Z,100978.34
2018-05-09T06:25:02.574Z,100977.81
2018-05-09T06:27:29.985Z,100981.09
2018-05-09T06:29:57.402Z,100983.15
2018-05-09T06:32:24.813Z,100975.19
2018-05-09T06:34:52.234Z,100968.41
2018-05-09T06:37:19.636Z,100969.86
2018-05-09T06:39:47.064Z,100969.73
2018-05-09T06:42:14.477Z,100968.76
2018-05-09T06:44:41.900Z,100969.39
2018-05-09T06:47:09.317Z,100976.63
2018-05-09T06:49:36.733Z,100980.84
2018-05-09T06:52:04.150Z,100981.47
2018-05-09T06:54:31.573Z,100982.65
2018-05-09T06:56:58.984Z,100979.41
2018-05-09T06:59:26.404Z,100975.35
2018-05-09T07:01:53.825Z,100985.16
2018-05-09T07:04:21.243Z,100985.74
2018-05-09T07:06:48.754Z,100985.29
2018-05-09T07:09:16.092Z,100989.91
2018-05-09T07:11:43.510Z,100982.00
2018-05-09T07:14:10.935Z,100989.98
2018-05-09T07:16:38.339Z,100984.26
2018-05-09T07:19:05.765Z,100984.41
2018-05-09T07:21:33.185Z,100977.61
2018-05-09T07:24:00.611Z,100984.51
2018-05-09T07:26:28.030Z,100986.91
2018-05-09T07:28:55.460Z,100983.95
2018-05-09T07:31:22.873Z,100977.41
2018-05-09T07:33:50.302Z,100980.09
2018-05-09T07:36:17.713Z,100969.17
2018-05-09T07:38:45.133Z,100974.04
2018-05-09T07:41:12.555Z,100967.56
2018-05-09T07:43:39.981Z,100982.72
2018-05-09T07:46:07.400Z,100981.44
2018-05-09T07:48:34.819Z,100983.05
2018-05-09T07:51:02.239Z,100986.06
2018-05-09T07:53:29.652Z,100979.76
2018-05-09T07:55:57.076Z,100977.75
2018-05-09T07:58:24.493Z,100978.25
2018-05-09T08:00:51.921Z,100981.06
2018-05-09T08:03:19.341Z,100976.45
2018-05-09T08:05:46.772Z,100976.25
2018-05-09T08:08:14.184Z,100973.40
2018-05-09T08:10:41.614Z,100974.70
2018-05-09T08:13:09.024Z,100979.92
2018-05-09T08:15:36.452Z,100971.98
2018-05-09T08:18:03.867Z,100977.91
2018-05-09T08:20:31.292Z,100970.20
2018-05-09T08:22:58.700Z,100973.84
2018-05-09T08:25:26.120Z,100978.23
2018-05-09T08:27:53.540Z,100975.95
2018-05-09T08:30:21.062Z,100977.16
2018-05-09T08:32:48.393Z,100980.42
2018-05-09T08:35:15.818Z,100981.84
2018-05-09T08:37:43.232Z,100984.75
2018-05-09T08:40:10.672Z,100979.90
2018-05-09T08:42:38.085Z,100979.08
2018-05-09T08:45:05.507Z,100982.47
2018-05-09T08:47:32.919Z,100980.36
2018-05-09T08:50:00.345Z,100977.40
2018-05-09T08:52:27.755Z,100971.47
2018-05-09T08:54:55.190Z,100971.16
2018-05-09T08:57:22.601Z,100970.91
2018-05-09T08:59:50.016Z,100969.66
2018-05-09T09:02:17.428Z,100970.14
2018-05-09T09:04:44.853Z,100963.38
2018-05-09T09:07:12.268Z,100969.48
2018-05-09T09:09:39.692Z,100966.75
2018-05-09T09:12:07.109Z,100962.75
2018-05-09T09:14:34.531Z,100954.55
2018-05-09T09:17:01.936Z,100948.18
2018-05-09T09:19:29.362Z,100946.00
2018-05-09T09:21:56.769Z,100945.93
2018-05-09T09:24:24.192Z,100949.07
2018-05-09T09:26:51.601Z,100942.48
2018-05-09T09:29:19.123Z,100946.17
2018-05-09T09:31:46.433Z,100943.28
2018-05-09T09:34:13.844Z,100947.12
2018-05-09T09:36:41.264Z,100944.68
2018-05-09T09:39:08.682Z,100949.34
2018-05-09T09:41:36.104Z,100939.69
2018-05-09T09:44:03.516Z,100939.34
2018-05-09T09:46:30.940Z,100935.53
2018-05-09T09:48:58.368Z,100938.42
2018-05-09T09:51:25.796Z,100934.52
2018-05-09T09:53:53.218Z,100930.60
2018-05-09T09:56:20.641Z,100926.55
2018-05-09T09:58:48.077Z,100931.29
2018-05-09T10:01:15.495Z,100935.39
2018-05-09T10:03:42.913Z,100929.27
2018-05-09T10:06:10.335Z,100931.28
2018-05-09T10:08:37.757Z,100928.61
2018-05-09T10:11:05.179Z,100930.66
2018-05-09T10:13:32.601Z,100916.84
2018-05-09T10:16:00.070Z,100916.36
2018-05-09T10:18:27.440Z,100912.98
2018-05-09T10:20:54.871Z,100922.16
2018-05-09T10:23:22.360Z,100910.58
2018-05-09T10:25:49.716Z,100910.72
2018-05-09T10:28:17.125Z,100907.11
2018-05-09T10:30:44.552Z,100903.69
2018-05-09T10:33:11.969Z,100897.41
2018-05-09T10:35:39.396Z,100903.52
2018-05-09T10:38:06.827Z,100895.78
2018-05-09T10:40:34.257Z,100900.70
2018-05-09T10:43:01.685Z,100897.25
2018-05-09T10:45:29.132Z,100893.64
2018-05-09T10:47:56.560Z,100886.15
2018-05-09T10:50:23.994Z,100886.41
2018-05-09T10:52:51.411Z,100887.63
2018-05-09T10:55:18.849Z,100884.81
2018-05-09T10:57:46.278Z,100888.32
2018-05-09T11:00:13.713Z,100889.59
2018-05-09T11:02:41.168Z,100881.04
2018-05-09T11:05:08.677Z,100893.25
2018-05-09T11:07:36.024Z,100889.72
2018-05-09T11:10:03.445Z,100884.37
2018-05-09T11:12:30.883Z,100893.85
2018-05-09T11:14:58.306Z,100894.30
2018-05-09T11:17:25.745Z,100897.03
2018-05-09T11:19:53.168Z,100891.72
2018-05-09T11:22:20.617Z,100884.52
2018-05-09T11:24:48.044Z,100886.31
2018-05-09T11:27:15.504Z,100877.22
2018-05-09T11:29:42.928Z,100873.44
2018-05-09T11:32:10.373Z,100868.78
2018-05-09T11:34:37.792Z,100866.66
2018-05-09T11:37:05.232Z,100868.24
2018-05-09T11:39:32.660Z,100868.86
2018-05-09T11:42:00.093Z,100858.94
2018-05-09T11:44:27.525Z,100857.95
2018-05-09T11:46:54.951Z,100854.47
2018-05-09T11:49:22.372Z,100852.78
2018-05-09T11:51:49.805Z,100864.72
2018-05-09T11:54:17.224Z,100857.37
2018-05-09T11:56:44.681Z,100841.82
2018-05-09T11:59:12.104Z,100836.53
2018-05-09T12:01:39.539Z,100835.71
2018-05-09T12:04:06.957Z,100830.00
2018-05-09T12:06:34.388Z,100833.97
2018-05-09T12:09:01.797Z,100831.14
2018-05-09T12:11:29.229Z,100829.48
2018-05-09T12:13:56.644Z,100827.31
2018-05-09T12:16:24.092Z,100831.34
2018-05-09T12:18:51.525Z,100827.13
2018-05-09T12:21:18.956Z,100817.30
2018-05-09T12:23:46.372Z,100828.84
2018-05-09T12:26:13.798Z,100818.05
2018-05-09T12:28:41.217Z,100813.98
2018-05-09T12:31:08.649Z,100813.94
2018-05-09T12:33:36.073Z,100816.00
2018-05-09T12:36:03.529Z,100814.09
2018-05-09T12:38:30.949Z,100797.30
2018-05-09T12:40:58.376Z,100805.91
2018-05-09T12:43:25.800Z,100794.53
2018-05-09T12:45:53.224Z,100794.94
2018-05-09T12:48:20.649Z,100800.69
2018-05-09T12:50:48.073Z,100804.74
2018-05-09T12:53:15.500Z,100802.03
2018-05-09T12:55:42.916Z,100803.51
2018-05-09T12:58:10.333Z,100801.82
2018-05-09T13:00:37.753Z,100791.77
2018-05-09T13:03:05.189Z,100784.78
2018-05-09T13:05:32.612Z,100788.27
2018-05-09T13:08:00.044Z,100784.91
2018-05-09T13:10:27.472Z,100769.09
2018-05-09T13:12:54.900Z,100770.54
2018-05-09T13:15:22.311Z,100768.39
2018-05-09T13:17:49.749Z,100766.39
2018-05-09T13:20:17.168Z,100757.55
2018-05-09T13:22:44.593Z,100762.31
2018-05-09T13:25:12.011Z,100761.80
2018-05-09T13:27:39.449Z,100754.34
2018-05-09T13:30:06.873Z,100750.07
2018-05-09T13:32:34.306Z,100742.80
2018-05-09T13:35:01.741Z,100734.97
2018-05-09T13:37:29.178Z,100729.73
2018-05-09T13:39:56.649Z,100732.50
2018-05-09T13:42:24.024Z,100731.75
2018-05-09T13:44:51.436Z,100732.99
2018-05-09T13:47:18.873Z,100725.70
2018-05-09T13:49:46.289Z,100716.86
2018-05-09T13:52:13.717Z,100721.86
2018-05-09T13:54:41.137Z,100720.43
2018-05-09T13:57:08.564Z,100719.97
2018-05-09T13:59:35.984Z,100719.67
2018-05-09T14:02:03.413Z,100709.16
2018-05-09T14:04:31.002Z,100708.36
2018-05-09T14:06:58.459Z,100704.45
2018-05-09T14:09:25.884Z,100701.56
2018-05-09T14:11:53.313Z,100704.16
2018-05-09T14:14:20.740Z,100701.28
2018-05-09T14:16:48.184Z,100698.31
2018-05-09T14:19:15.608Z,100696.80
2018-05-09T14:21:43.024Z,100689.23
2018-05-09T14:24:10.457Z,100679.41
2018-05-09T14:26:37.879Z,100683.47
2018-05-09T14:29:05.308Z,100675.86
2018-05-09T14:31:32.733Z,100677.53
2018-05-09T14:34:00.156Z,100677.13
2018-05-09T14:36:27.583Z,100678.84
2018-05-09T14:38:55.037Z,100667.75
2018-05-09T14:41:22.462Z,100666.69
2018-05-09T14:43:49.900Z,100672.68
2018-05-09T14:46:17.324Z,100668.16
2018-05-09T14:48:44.757Z,100667.55
2018-05-09T14:51:12.196Z,100664.81
2018-05-09T14:53:39.638Z,100668.56
2018-05-09T14:56:07.074Z,100658.83
2018-05-09T14:58:38.341Z,100660.95
2018-05-09T15:01:05.751Z,100654.98
2018-05-09T15:03:33.199Z,100652.39
2018-05-09T15:06:00.626Z,100648.50
2018-05-09T15:08:28.056Z,100646.03
2018-05-09T15:10:55.473Z,100640.35
2018-05-09T15:13:22.909Z,100638.38
2018-05-09T15:15:50.321Z,100646.45
2018-05-09T15:18:17.778Z,100628.34
2018-05-09T15:20:45.193Z,100633.84
2018-05-09T15:23:12.638Z,100632.88
2018-05-09T15:25:40.065Z,100633.94
2018-05-09T15:28:07.497Z,100635.00
2018-05-09T15:30:34.922Z,100642.18
2018-05-09T15:33:02.356Z,100639.62
2018-05-09T15:35:29.772Z,100624.82
2018-05-09T15:37:57.201Z,100625.95
2018-05-09T15:40:24.622Z,100633.48
2018-05-09T15:45:25.917Z,100626.50
2018-05-09T15:47:53.344Z,100623.27
2018-05-09T15:50:20.834Z,100619.18
2018-05-09T15:52:48.196Z,100616.45
2018-05-09T15:55:15.618Z,100617.22
2018-05-09T15:57:43.079Z,100614.22
2018-05-09T16:00:10.446Z,100613.73
2018-05-09T16:02:37.860Z,100606.28
2018-05-09T16:05:05.280Z,100610.48
2018-05-09T16:07:32.716Z,100600.58
2018-05-09T16:10:00.146Z,100607.97
2018-05-09T16:12:27.555Z,100603.37
2018-05-09T16:14:54.977Z,100616.05
2018-05-09T16:17:22.388Z,100603.20
2018-05-09T16:19:49.820Z,100590.44
2018-05-09T16:22:17.288Z,100599.57
2018-05-09T16:24:44.693Z,100606.41
2018-05-09T16:27:12.112Z,100603.85
2018-05-09T16:29:39.541Z,100599.91
2018-05-09T16:32:06.956Z,100597.91
2018-05-09T16:34:34.377Z,100596.27
2018-05-09T16:37:01.797Z,100599.34
2018-05-09T16:39:29.216Z,100598.23
2018-05-09T16:41:56.636Z,100598.55
2018-05-09T16:44:24.056Z,100591.32
2018-05-09T16:46:51.590Z,100590.78
2018-05-09T16:49:19.031Z,100589.84
2018-05-09T16:51:46.465Z,100591.97
2018-05-09T16:54:13.893Z,100591.30
2018-05-09T16:56:41.312Z,100586.69
2018-05-09T16:59:08.735Z,100587.02
2018-05-09T17:01:36.212Z,100589.77
2018-05-09T17:04:03.580Z,100582.41
2018-05-09T17:06:31.016Z,100587.20
2018-05-09T17:08:58.444Z,100581.65
2018-05-09T17:11:25.865Z,100578.98
2018-05-09T17:13:53.279Z,100580.57
2018-05-09T17:16:20.696Z,100578.16
2018-05-09T17:18:48.124Z,100578.44
2018-05-09T17:21:33.168Z,100576.92
2018-05-09T17:24:00.585Z,100576.22
2018-05-09T17:26:28.001Z,100575.73
2018-05-09T17:28:55.432Z,100572.19
2018-05-09T17:31:22.849Z,100575.17
2018-05-09T17:33:50.267Z,100575.97
2018-05-09T17:36:17.682Z,100575.72
2018-05-09T17:38:45.112Z,100572.75
2018-05-09T17:41:12.528Z,100568.13
2018-05-09T17:43:39.955Z,100565.00
2018-05-09T17:46:07.383Z,100571.25
2018-05-09T17:48:34.793Z,100564.53
2018-05-09T17:51:02.225Z,100563.66
2018-05-09T17:53:29.646Z,100567.45
2018-05-09T17:55:57.069Z,100566.00
2018-05-09T17:58:24.492Z,100567.28
2018-05-09T18:00:51.918Z,100564.00
2018-05-09T18:03:19.332Z,100563.92
2018-05-09T18:05:46.752Z,100563.49
2018-05-09T18:08:14.176Z,100563.48
2018-05-09T18:10:41.604Z,100565.28
2018-05-09T18:13:09.008Z,100564.40
2018-05-09T18:15:36.436Z,100563.55
2018-05-09T18:18:03.920Z,100572.45
2018-05-09T18:20:31.345Z,100570.94
2018-05-09T18:22:58.761Z,100570.56
2018-05-09T18:25:26.196Z,100570.52
2018-05-09T18:27:53.616Z,100574.84
2018-05-09T18:30:21.033Z,100572.43
2018-05-09T18:32:48.448Z,100568.33
2018-05-09T18:35:15.877Z,100569.77
2018-05-09T18:37:43.289Z,100567.27
2018-05-09T18:40:10.738Z,100568.02
2018-05-09T18:42:38.147Z,100575.14
2018-05-09T18:45:05.573Z,100572.50
2018-05-09T18:47:32.988Z,100579.47
2018-05-09T18:50:00.416Z,100582.45
2018-05-09T18:52:27.828Z,100580.36
2018-05-09T18:54:55.256Z,100579.09
2018-05-09T18:57:22.681Z,100587.06
2018-05-09T18:59:50.192Z,100582.98
2018-05-09T19:02:17.534Z,100584.97
2018-05-09T19:04:44.964Z,100582.59
2018-05-09T19:07:12.364Z,100589.37
2018-05-09T19:09:39.789Z,100577.34
2018-05-09T19:12:07.204Z,100584.65
2018-05-09T19:14:34.631Z,100584.09
2018-05-09T19:17:02.049Z,100586.02
2018-05-09T19:19:29.477Z,100586.22
2018-05-09T19:21:56.892Z,100588.42
2018-05-09T19:24:24.311Z,100584.14
2018-05-09T19:26:51.733Z,100588.25
2018-05-09T19:29:19.139Z,100590.73
2018-05-09T19:31:46.569Z,100597.48
2018-05-09T19:34:13.992Z,100587.51
2018-05-09T19:36:41.408Z,100596.61
2018-05-09T19:39:08.829Z,100597.05
2018-05-09T19:41:36.329Z,100598.11
2018-05-09T19:44:03.667Z,100599.23
2018-05-09T19:46:31.089Z,100597.23
2018-05-09T19:48:58.501Z,100598.77
2018-05-09T19:51:25.921Z,100600.36
2018-05-09T19:53:53.339Z,100601.45
2018-05-09T19:56:20.765Z,100600.75
2018-05-09T19:58:48.184Z,100600.53
2018-05-09T20:01:15.609Z,100598.63
2018-05-09T20:03:43.026Z,100601.61
2018-05-09T20:06:10.445Z,100598.79
2018-05-09T20:08:37.961Z,100597.84
2018-05-09T20:11:05.312Z,100609.13
2018-05-09T20:13:32.729Z,100600.88
2018-05-09T20:16:00.161Z,100599.52
2018-05-09T20:18:27.605Z,100600.73
2018-05-09T20:20:55.049Z,100599.88
2018-05-09T20:23:22.464Z,100604.83
2018-05-09T20:25:49.891Z,100607.22
2018-05-09T20:28:17.312Z,100604.83
2018-05-09T20:30:50.320Z,100607.02
2018-05-09T20:33:17.720Z,100603.70
2018-05-09T20:35:45.144Z,100606.68
2018-05-09T20:38:12.561Z,100609.71
2018-05-09T20:40:39.992Z,100616.42
2018-05-09T20:43:07.404Z,100610.44
2018-05-09T20:45:34.835Z,100604.59
2018-05-09T20:48:02.253Z,100606.08
2018-05-09T20:50:29.671Z,100604.67
2018-05-09T20:52:57.088Z,100612.84
2018-05-09T20:55:29.345Z,100612.38
2018-05-09T20:57:56.760Z,100613.31
2018-05-09T21:00:24.172Z,100617.06
2018-05-09T21:02:51.595Z,100613.17
2018-05-09T21:05:19.017Z,100614.83
2018-05-09T21:07:58.191Z,100615.80
2018-05-09T21:10:25.606Z,100611.36
2018-05-09T21:12:53.030Z,100610.99
2018-05-09T21:15:20.443Z,100608.24
2018-05-09T21:17:47.864Z,100613.61
2018-05-09T21:20:15.347Z,100612.12
2018-05-09T21:22:42.716Z,100614.26
2018-05-09T21:25:10.144Z,100614.80
2018-05-09T21:27:37.646Z,100614.46
2018-05-09T21:30:04.997Z,100607.67
2018-05-09T21:32:32.420Z,100609.02
2018-05-09T21:34:59.841Z,100614.19
2018-05-09T21:37:27.260Z,100620.88
2018-05-09T21:39:54.685Z,100611.03
2018-05-09T21:42:22.109Z,100616.73
2018-05-09T21:44:49.528Z,100608.57
2018-05-09T21:47:16.944Z,100618.91
2018-05-09T21:49:44.408Z,100608.69
2018-05-09T21:52:11.778Z,100614.11
2018-05-09T21:54:39.193Z,100609.87
2018-05-09T21:57:06.619Z,100605.50
2018-05-09T21:59:34.049Z,100603.95
2018-05-09T22:02:01.474Z,100601.93
2018-05-09T22:04:28.892Z,100609.02
2018-05-09T22:06:56.320Z,100611.31
2018-05-09T22:09:23.760Z,100605.73
2018-05-09T22:11:51.181Z,100606.20
2018-05-09T22:14:18.596Z,100601.59
2018-05-09T22:16:46.025Z,100593.19
2018-05-09T22:19:13.440Z,100595.87
2018-05-09T22:21:40.870Z,100589.13
2018-05-09T22:24:08.292Z,100587.77
2018-05-09T22:26:35.705Z,100588.86
2018-05-09T22:29:03.129Z,100583.05
2018-05-09T22:31:30.542Z,100577.38
2018-05-09T22:33:57.960Z,100579.42
2018-05-09T22:36:25.377Z,100581.12
2018-05-09T22:38:52.805Z,100583.20
2018-05-09T22:41:20.208Z,100578.97
2018-05-09T22:43:47.644Z,100579.28
2018-05-09T22:46:15.049Z,100576.69
2018-05-09T22:48:42.478Z,100573.95
2018-05-09T22:51:09.889Z,100568.77
2018-05-09T22:53:37.312Z,100565.97
2018-05-09T22:56:04.726Z,100570.97
2018-05-09T22:58:32.184Z,100568.58
2018-05-09T23:00:59.608Z,100568.61
2018-05-09T23:03:27.034Z,100564.20
2018-05-09T23:05:54.446Z,100565.66
2018-05-09T23:08:21.877Z,100564.28
2018-05-09T23:10:49.292Z,100558.89
2018-05-09T23:13:16.716Z,100563.95
2018-05-09T23:15:44.133Z,100557.53
2018-05-09T23:18:11.558Z,100555.56
2018-05-09T23:20:38.963Z,100557.67
2018-05-09T23:23:06.377Z,100552.95
2018-05-09T23:25:33.797Z,100556.41
2018-05-09T23:28:01.216Z,100555.19
2018-05-09T23:30:28.641Z,100555.41
2018-05-09T23:32:56.048Z,100545.81
2018-05-09T23:35:23.476Z,100554.25
2018-05-09T23:37:50.894Z,100555.03
2018-05-09T23:40:18.311Z,100553.22
2018-05-09T23:42:45.730Z,100545.42
2018-05-09T23:45:13.156Z,100547.08
2018-05-09T23:47:40.584Z,100544.66
2018-05-09T23:50:08.009Z,100550.73
2018-05-09T23:52:35.425Z,100540.08
2018-05-09T23:55:02.853Z,100536.86
2018-05-09T23:57:30.265Z,100532.44
2018-05-09T23:59:57.688Z,100533.46
